sensor_id;sensor_type;location;lat;lon;timestamp;temperature;humidity
65460;DHT22;52058;49.822;6.754;2023-04-24T00:02:26;10.27;99.99
65460;DHT22;52058;49.822;6.754;2023-04-24T00:04:52;10.29;99.99
65460;DHT22;52058;49.822;6.754;2023-04-24T00:07:19;10.32;99.90
65460;DHT22;52058;49.822;6.754;2023-04-24T00:09:46;10.32;99.51
65460;DHT22;52058;49.822;6.754;2023-04-24T00:12:12;10.30;99.42
65460;DHT22;52058;49.822;6.754;2023-04-24T00:14:39;10.33;99.28
65460;DHT22;52058;49.822;6.754;2023-04-24T00:17:05;10.33;99.19
65460;DHT22;52058;49.822;6.754;2023-04-24T00:19:36;10.33;98.93
65460;DHT22;52058;49.822;6.754;2023-04-24T00:22:03;10.34;99.07
65460;DHT22;52058;49.822;6.754;2023-04-24T00:24:29;10.32;98.89
65460;DHT22;52058;49.822;6.754;2023-04-24T00:26:56;10.36;99.26
65460;DHT22;52058;49.822;6.754;2023-04-24T00:29:26;10.34;99.01
65460;DHT22;52058;49.822;6.754;2023-04-24T00:31:53;10.33;98.33
65460;DHT22;52058;49.822;6.754;2023-04-24T00:34:20;10.34;98.88
65460;DHT22;52058;49.822;6.754;2023-04-24T00:36:51;10.36;98.79
65460;DHT22;52058;49.822;6.754;2023-04-24T00:39:17;10.34;98.82
65460;DHT22;52058;49.822;6.754;2023-04-24T00:41:44;10.36;98.30
65460;DHT22;52058;49.822;6.754;2023-04-24T00:44:11;10.34;97.83
65460;DHT22;52058;49.822;6.754;2023-04-24T00:46:38;10.33;97.87
65460;DHT22;52058;49.822;6.754;2023-04-24T00:49:05;10.33;97.51
65460;DHT22;52058;49.822;6.754;2023-04-24T00:51:33;10.32;97.15
65460;DHT22;52058;49.822;6.754;2023-04-24T00:54:01;10.34;97.90
65460;DHT22;52058;49.822;6.754;2023-04-24T00:56:28;10.34;97.40
65460;DHT22;52058;49.822;6.754;2023-04-24T00:58:55;10.32;97.25
65460;DHT22;52058;49.822;6.754;2023-04-24T01:01:22;10.30;97.28
65460;DHT22;52058;49.822;6.754;2023-04-24T01:03:49;10.27;97.87
65460;DHT22;52058;49.822;6.754;2023-04-24T01:06:18;10.29;97.79
65460;DHT22;52058;49.822;6.754;2023-04-24T01:08:45;10.30;97.81
65460;DHT22;52058;49.822;6.754;2023-04-24T01:11:14;10.29;97.06
65460;DHT22;52058;49.822;6.754;2023-04-24T01:13:41;10.24;96.39
65460;DHT22;52058;49.822;6.754;2023-04-24T01:16:10;10.26;96.38
65460;DHT22;52058;49.822;6.754;2023-04-24T01:18:36;10.23;95.05
65460;DHT22;52058;49.822;6.754;2023-04-24T01:21:04;10.24;92.41
65460;DHT22;52058;49.822;6.754;2023-04-24T01:23:35;10.26;93.52
65460;DHT22;52058;49.822;6.754;2023-04-24T01:26:01;10.20;91.45
65460;DHT22;52058;49.822;6.754;2023-04-24T01:28:28;10.14;94.61
65460;DHT22;52058;49.822;6.754;2023-04-24T01:30:55;10.17;91.81
65460;DHT22;52058;49.822;6.754;2023-04-24T01:33:25;10.13;91.74
65460;DHT22;52058;49.822;6.754;2023-04-24T01:35:52;10.08;93.37
65460;DHT22;52058;49.822;6.754;2023-04-24T01:38:18;9.93;94.23
65460;DHT22;52058;49.822;6.754;2023-04-24T01:40:46;9.81;92.78
65460;DHT22;52058;49.822;6.754;2023-04-24T01:43:13;9.63;93.04
65460;DHT22;52058;49.822;6.754;2023-04-24T01:45:40;9.52;93.48
65460;DHT22;52058;49.822;6.754;2023-04-24T01:48:07;9.38;93.68
65460;DHT22;52058;49.822;6.754;2023-04-24T01:50:33;9.20;95.80
65460;DHT22;52058;49.822;6.754;2023-04-24T01:53:00;9.03;95.13
65460;DHT22;52058;49.822;6.754;2023-04-24T01:55:27;8.89;95.68
65460;DHT22;52058;49.822;6.754;2023-04-24T01:57:55;8.90;95.14
65460;DHT22;52058;49.822;6.754;2023-04-24T02:00:23;8.89;96.47
65460;DHT22;52058;49.822;6.754;2023-04-24T02:02:50;8.93;96.17
65460;DHT22;52058;49.822;6.754;2023-04-24T02:05:16;8.90;95.64
65460;DHT22;52058;49.822;6.754;2023-04-24T02:07:45;8.97;94.67
65460;DHT22;52058;49.822;6.754;2023-04-24T02:10:12;8.99;95.09
65460;DHT22;52058;49.822;6.754;2023-04-24T02:12:38;9.04;95.64
65460;DHT22;52058;49.822;6.754;2023-04-24T02:15:07;9.10;95.71
65460;DHT22;52058;49.822;6.754;2023-04-24T02:17:34;9.14;95.82
65460;DHT22;52058;49.822;6.754;2023-04-24T02:20:00;9.20;95.14
65460;DHT22;52058;49.822;6.754;2023-04-24T02:22:27;9.23;94.98
65460;DHT22;52058;49.822;6.754;2023-04-24T02:24:53;9.26;95.16
65460;DHT22;52058;49.822;6.754;2023-04-24T02:27:20;9.26;95.34
65460;DHT22;52058;49.822;6.754;2023-04-24T02:29:46;9.21;95.33
65460;DHT22;52058;49.822;6.754;2023-04-24T02:32:17;9.17;94.68
65460;DHT22;52058;49.822;6.754;2023-04-24T02:34:43;8.99;93.67
65460;DHT22;52058;49.822;6.754;2023-04-24T02:37:10;8.86;93.40
65460;DHT22;52058;49.822;6.754;2023-04-24T02:39:36;8.71;91.58
65460;DHT22;52058;49.822;6.754;2023-04-24T02:42:03;8.59;91.68
65460;DHT22;52058;49.822;6.754;2023-04-24T02:44:30;8.48;92.25
65460;DHT22;52058;49.822;6.754;2023-04-24T02:46:57;8.37;93.49
65460;DHT22;52058;49.822;6.754;2023-04-24T02:49:25;8.24;93.88
65460;DHT22;52058;49.822;6.754;2023-04-24T02:51:52;8.25;93.64
65460;DHT22;52058;49.822;6.754;2023-04-24T02:54:18;8.14;94.13
65460;DHT22;52058;49.822;6.754;2023-04-24T02:56:45;8.05;94.37
65460;DHT22;52058;49.822;6.754;2023-04-24T02:59:11;7.98;95.46
65460;DHT22;52058;49.822;6.754;2023-04-24T03:01:40;7.97;93.90
65460;DHT22;52058;49.822;6.754;2023-04-24T03:04:07;7.94;94.70
65460;DHT22;52058;49.822;6.754;2023-04-24T03:06:35;7.87;95.56
65460;DHT22;52058;49.822;6.754;2023-04-24T03:09:04;7.93;94.62
65460;DHT22;52058;49.822;6.754;2023-04-24T03:11:30;7.84;94.37
65460;DHT22;52058;49.822;6.754;2023-04-24T03:13:57;7.86;94.51
65460;DHT22;52058;49.822;6.754;2023-04-24T03:16:23;7.89;95.32
65460;DHT22;52058;49.822;6.754;2023-04-24T03:18:50;7.95;95.27
65460;DHT22;52058;49.822;6.754;2023-04-24T03:21:17;8.04;95.43
65460;DHT22;52058;49.822;6.754;2023-04-24T03:23:45;8.15;94.89
65460;DHT22;52058;49.822;6.754;2023-04-24T03:26:11;8.20;95.89
65460;DHT22;52058;49.822;6.754;2023-04-24T03:28:38;8.21;94.56
65460;DHT22;52058;49.822;6.754;2023-04-24T03:31:05;8.27;95.62
65460;DHT22;52058;49.822;6.754;2023-04-24T03:33:31;8.30;95.82
65460;DHT22;52058;49.822;6.754;2023-04-24T03:35:58;8.32;95.89
65460;DHT22;52058;49.822;6.754;2023-04-24T03:38:24;8.34;96.12
65460;DHT22;52058;49.822;6.754;2023-04-24T03:40:52;8.35;96.07
65460;DHT22;52058;49.822;6.754;2023-04-24T03:43:19;8.38;96.09
65460;DHT22;52058;49.822;6.754;2023-04-24T03:45:45;8.38;96.19
65460;DHT22;52058;49.822;6.754;2023-04-24T03:48:12;8.38;95.67
65460;DHT22;52058;49.822;6.754;2023-04-24T03:50:38;8.41;95.30
65460;DHT22;52058;49.822;6.754;2023-04-24T03:53:05;8.45;95.46
65460;DHT22;52058;49.822;6.754;2023-04-24T03:55:31;8.46;93.64
65460;DHT22;52058;49.822;6.754;2023-04-24T03:57:59;8.45;94.45
65460;DHT22;52058;49.822;6.754;2023-04-24T04:00:26;8.45;94.16
65460;DHT22;52058;49.822;6.754;2023-04-24T04:02:53;8.49;93.30
65460;DHT22;52058;49.822;6.754;2023-04-24T04:05:19;8.53;92.42
65460;DHT22;52058;49.822;6.754;2023-04-24T04:07:46;8.51;93.20
65460;DHT22;52058;49.822;6.754;2023-04-24T04:10:13;8.48;92.91
65460;DHT22;52058;49.822;6.754;2023-04-24T04:12:39;8.49;93.32
65460;DHT22;52058;49.822;6.754;2023-04-24T04:15:08;8.51;93.32
65460;DHT22;52058;49.822;6.754;2023-04-24T04:17:35;8.49;92.85
65460;DHT22;52058;49.822;6.754;2023-04-24T04:20:03;8.45;92.66
65460;DHT22;52058;49.822;6.754;2023-04-24T04:22:33;8.45;92.97
65460;DHT22;52058;49.822;6.754;2023-04-24T04:25:00;8.41;93.00
65460;DHT22;52058;49.822;6.754;2023-04-24T04:27:28;8.48;92.17
65460;DHT22;52058;49.822;6.754;2023-04-24T04:29:57;8.53;92.38
65460;DHT22;52058;49.822;6.754;2023-04-24T04:32:26;8.53;92.11
65460;DHT22;52058;49.822;6.754;2023-04-24T04:34:52;8.58;92.60
65460;DHT22;52058;49.822;6.754;2023-04-24T04:37:19;8.55;92.33
65460;DHT22;52058;49.822;6.754;2023-04-24T04:39:46;8.59;93.07
65460;DHT22;52058;49.822;6.754;2023-04-24T04:42:12;8.63;91.84
65460;DHT22;52058;49.822;6.754;2023-04-24T04:44:40;8.63;92.14
65460;DHT22;52058;49.822;6.754;2023-04-24T04:47:08;8.65;91.91
65460;DHT22;52058;49.822;6.754;2023-04-24T04:49:37;8.65;91.99
65460;DHT22;52058;49.822;6.754;2023-04-24T04:52:04;8.69;93.15
65460;DHT22;52058;49.822;6.754;2023-04-24T04:54:30;8.69;93.48
65460;DHT22;52058;49.822;6.754;2023-04-24T04:56:57;8.63;93.50
65460;DHT22;52058;49.822;6.754;2023-04-24T04:59:24;8.63;94.26
65460;DHT22;52058;49.822;6.754;2023-04-24T05:01:50;8.65;93.88
65460;DHT22;52058;49.822;6.754;2023-04-24T05:04:17;8.65;93.52
65460;DHT22;52058;49.822;6.754;2023-04-24T05:06:45;8.69;94.05
65460;DHT22;52058;49.822;6.754;2023-04-24T05:09:12;8.66;93.45
65460;DHT22;52058;49.822;6.754;2023-04-24T05:11:39;8.65;93.84
65460;DHT22;52058;49.822;6.754;2023-04-24T05:14:05;8.72;93.15
65460;DHT22;52058;49.822;6.754;2023-04-24T05:16:32;8.77;92.88
65460;DHT22;52058;49.822;6.754;2023-04-24T05:18:58;8.80;92.76
65460;DHT22;52058;49.822;6.754;2023-04-24T05:21:25;8.82;92.39
65460;DHT22;52058;49.822;6.754;2023-04-24T05:23:53;8.87;93.45
65460;DHT22;52058;49.822;6.754;2023-04-24T05:26:20;8.86;91.70
65460;DHT22;52058;49.822;6.754;2023-04-24T05:28:47;8.96;92.35
65460;DHT22;52058;49.822;6.754;2023-04-24T05:31:15;8.90;91.63
65460;DHT22;52058;49.822;6.754;2023-04-24T05:33:43;8.86;91.64
65460;DHT22;52058;49.822;6.754;2023-04-24T05:36:09;8.76;91.77
65460;DHT22;52058;49.822;6.754;2023-04-24T05:38:36;8.76;91.25
65460;DHT22;52058;49.822;6.754;2023-04-24T05:41:04;8.75;90.98
65460;DHT22;52058;49.822;6.754;2023-04-24T05:43:30;8.71;90.76
65460;DHT22;52058;49.822;6.754;2023-04-24T05:45:57;8.72;90.37
65460;DHT22;52058;49.822;6.754;2023-04-24T05:48:23;8.89;89.35
65460;DHT22;52058;49.822;6.754;2023-04-24T05:50:50;9.06;88.96
65460;DHT22;52058;49.822;6.754;2023-04-24T05:53:17;9.10;88.70
65460;DHT22;52058;49.822;6.754;2023-04-24T05:55:44;9.19;87.82
65460;DHT22;52058;49.822;6.754;2023-04-24T05:58:12;9.27;87.84
65460;DHT22;52058;49.822;6.754;2023-04-24T06:00:40;9.24;87.95
65460;DHT22;52058;49.822;6.754;2023-04-24T06:03:08;9.32;87.83
65460;DHT22;52058;49.822;6.754;2023-04-24T06:05:34;9.27;87.84
65460;DHT22;52058;49.822;6.754;2023-04-24T06:08:01;9.37;87.65
65460;DHT22;52058;49.822;6.754;2023-04-24T06:10:27;9.30;88.01
65460;DHT22;52058;49.822;6.754;2023-04-24T06:12:54;9.28;87.89
65460;DHT22;52058;49.822;6.754;2023-04-24T06:15:27;9.30;88.20
65460;DHT22;52058;49.822;6.754;2023-04-24T06:17:54;9.32;87.86
65460;DHT22;52058;49.822;6.754;2023-04-24T06:20:21;9.23;88.75
65460;DHT22;52058;49.822;6.754;2023-04-24T06:22:47;9.19;89.25
65460;DHT22;52058;49.822;6.754;2023-04-24T06:25:14;9.10;88.78
65460;DHT22;52058;49.822;6.754;2023-04-24T06:27:41;9.09;88.27
65460;DHT22;52058;49.822;6.754;2023-04-24T06:30:08;9.16;88.56
65460;DHT22;52058;49.822;6.754;2023-04-24T06:32:37;9.16;88.49
65460;DHT22;52058;49.822;6.754;2023-04-24T06:35:04;9.41;87.61
65460;DHT22;52058;49.822;6.754;2023-04-24T06:37:32;9.47;87.83
65460;DHT22;52058;49.822;6.754;2023-04-24T06:39:59;9.54;87.43
65460;DHT22;52058;49.822;6.754;2023-04-24T06:42:25;9.45;87.86
65460;DHT22;52058;49.822;6.754;2023-04-24T06:44:52;9.50;88.35
65460;DHT22;52058;49.822;6.754;2023-04-24T06:47:18;9.54;88.39
65460;DHT22;52058;49.822;6.754;2023-04-24T06:49:46;9.59;88.43
65460;DHT22;52058;49.822;6.754;2023-04-24T06:52:13;9.63;88.02
65460;DHT22;52058;49.822;6.754;2023-04-24T06:54:41;9.68;87.93
65460;DHT22;52058;49.822;6.754;2023-04-24T06:57:08;9.63;87.63
65460;DHT22;52058;49.822;6.754;2023-04-24T06:59:35;9.72;88.39
65460;DHT22;52058;49.822;6.754;2023-04-24T07:02:02;9.59;88.78
65460;DHT22;52058;49.822;6.754;2023-04-24T07:04:29;9.62;88.73
65460;DHT22;52058;49.822;6.754;2023-04-24T07:06:57;9.55;88.75
65460;DHT22;52058;49.822;6.754;2023-04-24T07:09:24;9.68;88.67
65460;DHT22;52058;49.822;6.754;2023-04-24T07:11:52;9.63;88.53
65460;DHT22;52058;49.822;6.754;2023-04-24T07:14:18;9.69;88.42
65460;DHT22;52058;49.822;6.754;2023-04-24T07:16:45;9.65;87.51
65460;DHT22;52058;49.822;6.754;2023-04-24T07:19:13;9.52;87.61
65460;DHT22;52058;49.822;6.754;2023-04-24T07:21:39;9.59;88.06
65460;DHT22;52058;49.822;6.754;2023-04-24T07:24:07;9.65;87.73
65460;DHT22;52058;49.822;6.754;2023-04-24T07:26:36;9.77;87.30
65460;DHT22;52058;49.822;6.754;2023-04-24T07:29:03;9.96;86.82
65460;DHT22;52058;49.822;6.754;2023-04-24T07:31:30;9.90;87.37
65460;DHT22;52058;49.822;6.754;2023-04-24T07:33:57;9.74;88.11
65460;DHT22;52058;49.822;6.754;2023-04-24T07:36:24;9.75;87.65
65460;DHT22;52058;49.822;6.754;2023-04-24T07:38:51;10.13;87.27
65460;DHT22;52058;49.822;6.754;2023-04-24T07:41:19;10.23;87.05
65460;DHT22;52058;49.822;6.754;2023-04-24T07:43:46;10.12;87.32
65460;DHT22;52058;49.822;6.754;2023-04-24T07:46:13;9.90;88.10
65460;DHT22;52058;49.822;6.754;2023-04-24T07:48:40;10.08;88.99
65460;DHT22;52058;49.822;6.754;2023-04-24T07:51:06;10.29;88.47
65460;DHT22;52058;49.822;6.754;2023-04-24T07:53:35;10.21;87.76
65460;DHT22;52058;49.822;6.754;2023-04-24T07:56:01;10.26;88.46
65460;DHT22;52058;49.822;6.754;2023-04-24T07:58:29;10.20;87.40
65460;DHT22;52058;49.822;6.754;2023-04-24T08:00:56;10.05;87.51
65460;DHT22;52058;49.822;6.754;2023-04-24T08:03:23;10.16;87.41
65460;DHT22;52058;49.822;6.754;2023-04-24T08:05:50;10.36;87.91
65460;DHT22;52058;49.822;6.754;2023-04-24T08:08:17;10.60;86.96
65460;DHT22;52058;49.822;6.754;2023-04-24T08:10:43;10.58;86.79
65460;DHT22;52058;49.822;6.754;2023-04-24T08:13:10;10.51;87.98
65460;DHT22;52058;49.822;6.754;2023-04-24T08:15:39;10.29;87.86
65460;DHT22;52058;49.822;6.754;2023-04-24T08:18:06;10.12;89.65
65460;DHT22;52058;49.822;6.754;2023-04-24T08:20:33;10.16;90.08
65460;DHT22;52058;49.822;6.754;2023-04-24T08:22:59;10.17;88.77
65460;DHT22;52058;49.822;6.754;2023-04-24T08:25:26;10.27;88.34
65460;DHT22;52058;49.822;6.754;2023-04-24T08:27:53;10.64;88.21
65460;DHT22;52058;49.822;6.754;2023-04-24T08:30:19;10.78;87.73
65460;DHT22;52058;49.822;6.754;2023-04-24T08:32:47;11.05;87.14
65460;DHT22;52058;49.822;6.754;2023-04-24T08:35:14;10.89;87.06
65460;DHT22;52058;49.822;6.754;2023-04-24T08:37:40;10.68;87.55
65460;DHT22;52058;49.822;6.754;2023-04-24T08:40:13;10.81;87.52
65460;DHT22;52058;49.822;6.754;2023-04-24T08:42:41;10.84;86.41
65460;DHT22;52058;49.822;6.754;2023-04-24T08:45:09;10.97;86.52
65460;DHT22;52058;49.822;6.754;2023-04-24T08:47:37;11.02;86.10
65460;DHT22;52058;49.822;6.754;2023-04-24T08:50:07;11.04;86.74
65460;DHT22;52058;49.822;6.754;2023-04-24T08:52:34;11.18;86.19
65460;DHT22;52058;49.822;6.754;2023-04-24T08:55:01;11.11;86.39
65460;DHT22;52058;49.822;6.754;2023-04-24T08:57:28;11.29;86.54
65460;DHT22;52058;49.822;6.754;2023-04-24T08:59:56;11.25;86.25
65460;DHT22;52058;49.822;6.754;2023-04-24T09:02:25;11.37;85.56
65460;DHT22;52058;49.822;6.754;2023-04-24T09:04:52;11.57;83.68
65460;DHT22;52058;49.822;6.754;2023-04-24T09:07:22;11.56;84.17
65460;DHT22;52058;49.822;6.754;2023-04-24T09:09:50;11.98;83.48
65460;DHT22;52058;49.822;6.754;2023-04-24T09:12:17;11.74;85.06
65460;DHT22;52058;49.822;6.754;2023-04-24T09:14:45;11.65;84.18
65460;DHT22;52058;49.822;6.754;2023-04-24T09:17:12;11.74;85.03
65460;DHT22;52058;49.822;6.754;2023-04-24T09:19:39;11.74;85.34
65460;DHT22;52058;49.822;6.754;2023-04-24T09:22:06;11.42;85.36
65460;DHT22;52058;49.822;6.754;2023-04-24T09:24:35;11.78;85.94
65460;DHT22;52058;49.822;6.754;2023-04-24T09:27:02;11.77;86.13
65460;DHT22;52058;49.822;6.754;2023-04-24T09:29:29;11.66;85.64
65460;DHT22;52058;49.822;6.754;2023-04-24T09:31:57;11.99;84.76
65460;DHT22;52058;49.822;6.754;2023-04-24T09:34:24;11.98;84.22
65460;DHT22;52058;49.822;6.754;2023-04-24T09:36:52;11.80;83.55
65460;DHT22;52058;49.822;6.754;2023-04-24T09:39:19;11.88;84.15
65460;DHT22;52058;49.822;6.754;2023-04-24T09:41:48;12.18;82.71
65460;DHT22;52058;49.822;6.754;2023-04-24T09:44:17;12.41;82.90
65460;DHT22;52058;49.822;6.754;2023-04-24T09:46:48;12.15;81.95
65460;DHT22;52058;49.822;6.754;2023-04-24T09:49:20;11.97;81.62
65460;DHT22;52058;49.822;6.754;2023-04-24T09:51:46;11.97;82.58
65460;DHT22;52058;49.822;6.754;2023-04-24T09:54:14;11.88;82.33
65460;DHT22;52058;49.822;6.754;2023-04-24T09:56:43;11.88;83.74
65460;DHT22;52058;49.822;6.754;2023-04-24T09:59:12;11.77;83.71
65460;DHT22;52058;49.822;6.754;2023-04-24T10:01:39;11.74;83.34
65460;DHT22;52058;49.822;6.754;2023-04-24T10:04:15;11.37;83.68
65460;DHT22;52058;49.822;6.754;2023-04-24T10:06:42;11.15;84.53
65460;DHT22;52058;49.822;6.754;2023-04-24T10:09:09;11.12;83.57
65460;DHT22;52058;49.822;6.754;2023-04-24T10:11:37;11.28;84.46
65460;DHT22;52058;49.822;6.754;2023-04-24T10:14:09;11.20;84.63
65460;DHT22;52058;49.822;6.754;2023-04-24T10:16:37;11.57;83.16
65460;DHT22;52058;49.822;6.754;2023-04-24T10:19:04;11.65;82.63
65460;DHT22;52058;49.822;6.754;2023-04-24T10:21:31;11.53;82.09
65460;DHT22;52058;49.822;6.754;2023-04-24T10:23:58;11.59;82.27
65460;DHT22;52058;49.822;6.754;2023-04-24T10:26:29;11.47;84.18
65460;DHT22;52058;49.822;6.754;2023-04-24T10:28:57;11.20;82.87
65460;DHT22;52058;49.822;6.754;2023-04-24T10:31:24;11.28;83.38
65460;DHT22;52058;49.822;6.754;2023-04-24T10:33:53;11.16;82.86
65460;DHT22;52058;49.822;6.754;2023-04-24T10:36:22;11.28;81.21
65460;DHT22;52058;49.822;6.754;2023-04-24T10:38:49;11.60;78.98
65460;DHT22;52058;49.822;6.754;2023-04-24T10:41:17;11.90;79.82
65460;DHT22;52058;49.822;6.754;2023-04-24T10:43:46;12.05;77.27
65460;DHT22;52058;49.822;6.754;2023-04-24T10:46:19;12.01;76.56
65460;DHT22;52058;49.822;6.754;2023-04-24T10:48:54;12.10;76.13
65460;DHT22;52058;49.822;6.754;2023-04-24T10:51:22;12.20;74.98
65460;DHT22;52058;49.822;6.754;2023-04-24T10:53:49;12.60;75.25
65460;DHT22;52058;49.822;6.754;2023-04-24T10:56:17;12.65;73.77
65460;DHT22;52058;49.822;6.754;2023-04-24T10:58:50;12.45;74.52
65460;DHT22;52058;49.822;6.754;2023-04-24T11:01:25;12.65;74.81
65460;DHT22;52058;49.822;6.754;2023-04-24T11:03:56;13.02;73.22
65460;DHT22;52058;49.822;6.754;2023-04-24T11:06:29;13.14;72.48
65460;DHT22;52058;49.822;6.754;2023-04-24T11:09:02;13.24;71.99
65460;DHT22;52058;49.822;6.754;2023-04-24T11:11:29;12.96;72.33
65460;DHT22;52058;49.822;6.754;2023-04-24T11:14:06;13.18;71.12
65460;DHT22;52058;49.822;6.754;2023-04-24T11:16:35;12.99;70.59
65460;DHT22;52058;49.822;6.754;2023-04-24T11:19:06;12.77;71.11
65460;DHT22;52058;49.822;6.754;2023-04-24T11:21:41;12.39;71.28
65460;DHT22;52058;49.822;6.754;2023-04-24T11:24:27;12.39;72.68
65460;DHT22;52058;49.822;6.754;2023-04-24T11:26:55;12.35;73.20
65460;DHT22;52058;49.822;6.754;2023-04-24T11:29:24;12.32;72.93
65460;DHT22;52058;49.822;6.754;2023-04-24T11:32:15;12.72;72.72
65460;DHT22;52058;49.822;6.754;2023-04-24T11:34:46;13.03;71.23
65460;DHT22;52058;49.822;6.754;2023-04-24T11:37:14;12.82;71.75
65460;DHT22;52058;49.822;6.754;2023-04-24T11:39:40;12.41;71.78
65460;DHT22;52058;49.822;6.754;2023-04-24T11:42:07;12.38;71.21
65460;DHT22;52058;49.822;6.754;2023-04-24T11:44:35;12.42;71.29
65460;DHT22;52058;49.822;6.754;2023-04-24T11:47:02;12.41;71.64
65460;DHT22;52058;49.822;6.754;2023-04-24T11:49:29;12.39;73.67
65460;DHT22;52058;49.822;6.754;2023-04-24T11:51:57;12.20;72.79
65460;DHT22;52058;49.822;6.754;2023-04-24T11:54:23;11.91;73.09
65460;DHT22;52058;49.822;6.754;2023-04-24T11:56:50;12.04;74.59
65460;DHT22;52058;49.822;6.754;2023-04-24T11:59:17;12.11;73.12
65460;DHT22;52058;49.822;6.754;2023-04-24T12:01:44;12.21;73.54
65460;DHT22;52058;49.822;6.754;2023-04-24T12:04:11;12.21;71.36
65460;DHT22;52058;49.822;6.754;2023-04-24T12:06:38;12.28;72.76
65460;DHT22;52058;49.822;6.754;2023-04-24T12:09:06;12.39;72.10
65460;DHT22;52058;49.822;6.754;2023-04-24T12:11:34;12.60;71.74
65460;DHT22;52058;49.822;6.754;2023-04-24T12:14:10;12.62;71.16
65460;DHT22;52058;49.822;6.754;2023-04-24T12:16:36;12.48;70.07
65460;DHT22;52058;49.822;6.754;2023-04-24T12:19:04;12.66;70.54
65460;DHT22;52058;49.822;6.754;2023-04-24T12:21:31;12.97;69.46
65460;DHT22;52058;49.822;6.754;2023-04-24T12:23:57;13.37;69.21
65460;DHT22;52058;49.822;6.754;2023-04-24T12:26:27;13.71;68.26
65460;DHT22;52058;49.822;6.754;2023-04-24T12:28:54;13.59;68.42
65460;DHT22;52058;49.822;6.754;2023-04-24T12:31:21;13.55;68.91
65460;DHT22;52058;49.822;6.754;2023-04-24T12:33:49;13.13;70.75
65460;DHT22;52058;49.822;6.754;2023-04-24T12:36:16;13.07;71.29
65460;DHT22;52058;49.822;6.754;2023-04-24T12:38:44;12.87;72.09
65460;DHT22;52058;49.822;6.754;2023-04-24T12:41:12;13.25;71.00
65460;DHT22;52058;49.822;6.754;2023-04-24T12:43:52;13.76;69.92
65460;DHT22;52058;49.822;6.754;2023-04-24T12:46:18;13.86;69.09
65460;DHT22;52058;49.822;6.754;2023-04-24T12:48:48;13.66;70.72
65460;DHT22;52058;49.822;6.754;2023-04-24T12:51:14;13.85;69.42
65460;DHT22;52058;49.822;6.754;2023-04-24T12:53:41;13.73;69.89
65460;DHT22;52058;49.822;6.754;2023-04-24T12:56:08;13.85;69.92
65460;DHT22;52058;49.822;6.754;2023-04-24T12:58:34;13.66;70.70
65460;DHT22;52058;49.822;6.754;2023-04-24T13:01:02;13.63;68.65
65460;DHT22;52058;49.822;6.754;2023-04-24T13:03:29;13.38;68.40
65460;DHT22;52058;49.822;6.754;2023-04-24T13:05:55;13.55;68.90
65460;DHT22;52058;49.822;6.754;2023-04-24T13:08:22;13.85;67.13
65460;DHT22;52058;49.822;6.754;2023-04-24T13:10:49;14.13;66.78
65460;DHT22;52058;49.822;6.754;2023-04-24T13:13:16;14.00;66.08
65460;DHT22;52058;49.822;6.754;2023-04-24T13:15:42;14.30;65.85
65460;DHT22;52058;49.822;6.754;2023-04-24T13:18:12;14.38;65.31
65460;DHT22;52058;49.822;6.754;2023-04-24T13:20:39;15.13;65.05
65460;DHT22;52058;49.822;6.754;2023-04-24T13:23:07;16.86;60.05
65460;DHT22;52058;49.822;6.754;2023-04-24T13:25:35;15.83;61.57
65460;DHT22;52058;49.822;6.754;2023-04-24T13:28:02;15.03;62.80
65460;DHT22;52058;49.822;6.754;2023-04-24T13:30:29;14.68;63.61
65460;DHT22;52058;49.822;6.754;2023-04-24T13:32:55;14.88;64.16
65460;DHT22;52058;49.822;6.754;2023-04-24T13:35:26;15.03;62.70
65460;DHT22;52058;49.822;6.754;2023-04-24T13:37:53;19.68;53.33
65460;DHT22;52058;49.822;6.754;2023-04-24T13:40:19;17.54;57.24
65460;DHT22;52058;49.822;6.754;2023-04-24T13:42:46;16.91;57.99
65460;DHT22;52058;49.822;6.754;2023-04-24T13:45:13;18.37;55.55
65460;DHT22;52058;49.822;6.754;2023-04-24T13:47:39;18.20;55.50
65460;DHT22;52058;49.822;6.754;2023-04-24T13:50:07;17.38;58.05
65460;DHT22;52058;49.822;6.754;2023-04-24T13:52:36;17.27;56.90
65460;DHT22;52058;49.822;6.754;2023-04-24T13:55:02;19.18;54.39
65460;DHT22;52058;49.822;6.754;2023-04-24T13:57:29;17.18;56.35
65460;DHT22;52058;49.822;6.754;2023-04-24T13:59:57;18.00;56.74
65460;DHT22;52058;49.822;6.754;2023-04-24T14:02:26;20.94;50.24
65460;DHT22;52058;49.822;6.754;2023-04-24T14:04:53;23.57;45.39
65460;DHT22;52058;49.822;6.754;2023-04-24T14:07:19;21.88;45.54
65460;DHT22;52058;49.822;6.754;2023-04-24T14:09:48;20.53;49.33
65460;DHT22;52058;49.822;6.754;2023-04-24T14:12:15;18.20;52.28
65460;DHT22;52058;49.822;6.754;2023-04-24T14:14:45;19.33;51.14
65460;DHT22;52058;49.822;6.754;2023-04-24T14:17:12;22.78;46.50
65460;DHT22;52058;49.822;6.754;2023-04-24T14:19:38;24.63;43.68
65460;DHT22;52058;49.822;6.754;2023-04-24T14:22:05;23.63;43.60
65460;DHT22;52058;49.822;6.754;2023-04-24T14:24:32;19.84;50.64
65460;DHT22;52058;49.822;6.754;2023-04-24T14:26:59;18.94;53.20
65460;DHT22;52058;49.822;6.754;2023-04-24T14:29:26;18.30;54.34
65460;DHT22;52058;49.822;6.754;2023-04-24T14:31:53;17.66;56.56
65460;DHT22;52058;49.822;6.754;2023-04-24T14:34:19;17.44;57.54
65460;DHT22;52058;49.822;6.754;2023-04-24T14:36:46;16.19;59.35
65460;DHT22;52058;49.822;6.754;2023-04-24T14:39:13;16.12;61.60
65460;DHT22;52058;49.822;6.754;2023-04-24T14:41:39;15.54;68.26
65460;DHT22;52058;49.822;6.754;2023-04-24T14:44:07;15.09;68.39
65460;DHT22;52058;49.822;6.754;2023-04-24T14:46:34;14.67;67.32
65460;DHT22;52058;49.822;6.754;2023-04-24T14:49:00;14.02;67.50
65460;DHT22;52058;49.822;6.754;2023-04-24T14:51:27;13.38;69.85
65460;DHT22;52058;49.822;6.754;2023-04-24T14:53:53;13.47;70.23
65460;DHT22;52058;49.822;6.754;2023-04-24T14:56:20;12.83;70.79
65460;DHT22;52058;49.822;6.754;2023-04-24T14:58:47;12.75;73.75
65460;DHT22;52058;49.822;6.754;2023-04-24T15:01:15;12.89;73.39
65460;DHT22;52058;49.822;6.754;2023-04-24T15:03:43;12.87;73.52
65460;DHT22;52058;49.822;6.754;2023-04-24T15:06:09;12.92;74.87
65460;DHT22;52058;49.822;6.754;2023-04-24T15:08:39;12.07;78.84
65460;DHT22;52058;49.822;6.754;2023-04-24T15:11:06;11.50;85.98
65460;DHT22;52058;49.822;6.754;2023-04-24T15:13:33;10.95;98.07
65460;DHT22;52058;49.822;6.754;2023-04-24T15:16:00;11.22;92.55
65460;DHT22;52058;49.822;6.754;2023-04-24T15:18:28;11.76;88.29
65460;DHT22;52058;49.822;6.754;2023-04-24T15:20:55;12.99;88.35
65460;DHT22;52058;49.822;6.754;2023-04-24T15:23:22;14.99;81.63
65460;DHT22;52058;49.822;6.754;2023-04-24T15:25:49;16.91;79.56
65460;DHT22;52058;49.822;6.754;2023-04-24T15:28:16;19.15;76.24
65460;DHT22;52058;49.822;6.754;2023-04-24T15:30:43;19.60;70.54
65460;DHT22;52058;49.822;6.754;2023-04-24T15:33:10;20.17;68.27
65460;DHT22;52058;49.822;6.754;2023-04-24T15:35:38;20.28;63.10
65460;DHT22;52058;49.822;6.754;2023-04-24T15:38:05;19.03;66.15
65460;DHT22;52058;49.822;6.754;2023-04-24T15:40:32;17.89;71.27